< Cyclone 197504 1975 Season Cyclone 197506 >
Cyclone 197505 (TRACY)
General InformationTrack Information on Google MapsDetailed Wind Information || ResourceGoogle EarthGE AnimationAtom FeedGeoJSON
Detalied Best Track (Time Zone = UTC)
Year Month Day Hour Lat. Long. Pressure (hPa) Wind (kt) Class Image Chart
1974 12 20 00 -8.0 135.0 1000 25 2 -- --
1974 12 20 06 -8.2 134.5 998 25 2 -- --
1974 12 20 12 -8.5 134.0 998 25 2 -- --
1974 12 20 18 -8.7 133.5 995 30 2 -- --
1974 12 21 00 -8.9 133.0 992 35 3 -- --
1974 12 21 06 -9.0 132.5 990 40 3 -- --
1974 12 21 18 -9.5 131.5 985 50 4 -- --
1974 12 22 06 -10.4 130.9 980 65 5 -- --
1974 12 22 16 -11.0 130.5 970 75 5 -- --
1974 12 22 18 -11.0 130.4 970 75 5 -- --
1974 12 23 06 -11.3 130.1 955 90 5 -- --
1974 12 23 18 -11.7 129.9 955 90 5 -- --
1974 12 24 06 -12.1 130.2 950 95 5 -- --
1974 12 24 09 -12.1 130.3 950 95 5 -- --
1974 12 24 15 -12.2 130.6 950 95 5 -- --
1974 12 24 18 -12.3 130.8 950 95 5 -- --
1974 12 25 06 -12.7 132.0 994 35 3 -- --
1974 12 25 12 -13.1 132.7 996 30 2 -- --
1974 12 25 18 -13.5 133.4 998 25 2 -- --
1974 12 26 00 -13.9 134.1 998 25 2 -- --
< Cyclone 197504 1975 Season Cyclone 197506 >

Help